Time;durP1;ratioP1;P1;durP2;ratioP2;P2;SDS_P1;SDS_P2;PMS_P1;PMS_P2;Temp;Humidity;BMP_temperature;BMP_pressure;BME280_temperature;BME280_humidity;BME280_pressure;Samples;Min_cycle;Max_cycle;Signal;HPM_P1;HPM_P2
2022/05/18 00:00:29;;;;;;;2.25;1.40;;;19.30;8.90;;;;;;4771070;30;20131;-89
2022/05/18 00:03:04;;;;;;;1.70;1.10;;;19.20;8.90;;;;;;4769227;30;20568;-89
2022/05/18 00:05:33;;;;;;;1.67;1.17;;;19.20;8.90;;;;;;4769443;30;20083;-89
2022/05/18 00:08:01;;;;;;;2.60;1.40;;;19.20;8.70;;;;;;4769290;30;20068;-89
2022/05/18 00:10:29;;;;;;;1.90;1.15;;;19.20;9.60;;;;;;4769029;30;20051;-88
2022/05/18 00:12:56;;;;;;;5.50;1.52;;;19.10;9.90;;;;;;4768668;30;20363;-89
2022/05/18 00:15:25;;;;;;;1.83;1.27;;;19.10;9.50;;;;;;4769336;30;20058;-88
2022/05/18 00:17:52;;;;;;;3.00;1.30;;;19.10;10.80;;;;;;4769228;30;20563;-89
2022/05/18 00:20:20;;;;;;;2.13;1.10;;;19.10;9.90;;;;;;4769653;30;20047;-89
2022/05/18 00:22:48;;;;;;;2.95;1.23;;;19.10;7.90;;;;;;4768939;30;20059;-89
2022/05/18 00:25:17;;;;;;;2.55;1.40;;;19.10;9.70;;;;;;4769466;30;20142;-89
2022/05/18 00:27:45;;;;;;;2.78;1.58;;;19.00;14.60;;;;;;4769126;30;20479;-88
2022/05/18 00:30:15;;;;;;;1.73;1.15;;;19.00;9.90;;;;;;4769288;30;20072;-88
2022/05/18 00:32:42;;;;;;;2.75;2.08;;;19.00;10.80;;;;;;4768885;30;20048;-89
2022/05/18 00:35:10;;;;;;;5.40;2.38;;;19.00;10.60;;;;;;4769266;30;20066;-89
2022/05/18 00:37:37;;;;;;;1.92;1.13;;;18.90;9.90;;;;;;4768943;30;20453;-89
2022/05/18 00:40:06;;;;;;;4.03;1.33;;;18.80;9.30;;;;;;4769201;30;20051;-89
2022/05/18 00:42:33;;;;;;;2.47;1.65;;;18.80;10.70;;;;;;4769027;30;20044;-89
2022/05/18 00:45:00;;;;;;;2.60;1.58;;;18.80;10.40;;;;;;4768990;30;20051;-89
2022/05/18 00:47:27;;;;;;;3.08;1.55;;;18.80;10.90;;;;;;4768633;30;20055;-88
2022/05/18 00:50:02;;;;;;;2.38;1.50;;;18.80;10.10;;;;;;4768660;30;20055;-89
2022/05/18 00:52:32;;;;;;;;;;;18.80;14.40;;;;;;4769182;30;20574;-88
2022/05/18 00:55:01;;;;;;;2.35;1.80;;;18.70;14.10;;;;;;4768790;30;19962;-88
2022/05/18 00:57:34;;;;;;;2.63;1.75;;;18.70;10.80;;;;;;4768701;30;20044;-89
2022/05/18 01:00:04;;;;;;;;;;;18.70;14.10;;;;;;4770816;30;20040;-88
2022/05/18 01:02:35;;;;;;;5.15;1.98;;;18.60;13.90;;;;;;4769355;30;19933;-88
2022/05/18 01:05:05;;;;;;;4.78;2.03;;;18.60;15.00;;;;;;4772193;30;20059;-88
2022/05/18 01:07:44;;;;;;;4.68;2.00;;;18.60;14.80;;;;;;4773506;30;20052;-88
2022/05/18 01:10:11;;;;;;;4.07;2.40;;;18.60;14.80;;;;;;4772201;30;20050;-88
2022/05/18 01:12:38;;;;;;;4.13;1.95;;;18.50;15.20;;;;;;4768667;30;20058;-88
2022/05/18 01:15:12;;;;;;;3.13;2.35;;;18.50;14.60;;;;;;4768683;30;20187;-89
2022/05/18 01:17:42;;;;;;;4.00;1.85;;;18.50;15.30;;;;;;4768285;30;20132;-88
2022/05/18 01:20:14;;;;;;;4.10;1.90;;;18.50;14.80;;;;;;4768511;30;20167;-89
2022/05/18 01:23:16;;;;;;;1.80;1.25;;;18.40;16.10;;;;;;4768357;30;20147;-89
2022/05/18 01:26:14;;;;;;;4.00;1.90;;;18.40;16.80;;;;;;4772267;30;20765;-88
2022/05/18 01:28:50;;;;;;;4.05;2.08;;;18.40;17.30;;;;;;4772437;30;20510;-89
2022/05/18 01:31:17;;;;;;;5.05;1.98;;;18.40;15.10;;;;;;4772218;30;20055;-88
2022/05/18 01:33:44;;;;;;;4.03;1.50;;;18.30;18.00;;;;;;4772202;30;20097;-88
2022/05/18 01:36:11;;;;;;;2.65;1.77;;;18.30;17.50;;;;;;4772592;30;20564;-88
2022/05/18 01:38:38;;;;;;;2.90;1.77;;;18.30;18.70;;;;;;4772892;30;20051;-88
2022/05/18 01:41:11;;;;;;;5.50;1.95;;;18.30;17.30;;;;;;4772186;30;20052;-88
2022/05/18 01:43:49;;;;;;;2.38;1.58;;;18.30;18.90;;;;;;4772107;30;20055;-89
2022/05/18 01:46:20;;;;;;;5.72;1.92;;;18.20;17.70;;;;;;4772902;30;20127;-87
2022/05/18 01:48:50;;;;;;;2.53;1.83;;;18.20;16.00;;;;;;4771639;30;20130;-89
2022/05/18 01:51:34;;;;;;;4.32;2.00;;;18.20;18.20;;;;;;4771793;30;20056;-88
2022/05/18 01:54:01;;;;;;;3.15;1.90;;;18.20;19.00;;;;;;4772855;30;20075;-89
2022/05/18 01:56:28;;;;;;;2.50;1.77;;;18.20;17.70;;;;;;4773033;30;20052;-89
2022/05/18 01:58:55;;;;;;;3.25;1.92;;;18.10;18.10;;;;;;4772081;30;20043;-89
2022/05/18 02:01:22;;;;;;;3.17;2.00;;;18.10;18.80;;;;;;4771839;30;20078;-88
2022/05/18 02:03:50;;;;;;;3.90;2.40;;;18.10;18.50;;;;;;4771626;30;20048;-88
2022/05/18 02:06:17;;;;;;;3.28;2.40;;;18.10;18.60;;;;;;4771460;30;20082;-88
2022/05/18 02:08:44;;;;;;;2.92;2.08;;;18.10;19.30;;;;;;4771340;30;20090;-89
2022/05/18 02:11:20;;;;;;;5.00;2.33;;;18.10;18.00;;;;;;4771457;30;20132;-88
2022/05/18 02:13:48;;;;;;;2.72;2.40;;;18.00;19.20;;;;;;4771231;30;20083;-89
2022/05/18 02:16:14;;;;;;;3.28;1.58;;;18.00;20.40;;;;;;4771291;30;20055;-88
2022/05/18 02:18:42;;;;;;;3.13;2.17;;;18.00;19.50;;;;;;4772385;30;20048;-88
2022/05/18 02:21:10;;;;;;;2.70;2.10;;;18.00;17.50;;;;;;4771392;30;20056;-88
2022/05/18 02:23:39;;;;;;;3.53;2.08;;;17.90;20.80;;;;;;4770842;30;20163;-88
2022/05/18 02:26:16;;;;;;;5.60;2.58;;;17.90;21.40;;;;;;4771248;30;20101;-88
2022/05/18 02:28:44;;;;;;;3.58;2.15;;;17.90;20.30;;;;;;4771038;30;20060;-88
2022/05/18 02:31:12;;;;;;;2.35;1.85;;;17.90;20.40;;;;;;4771441;30;20052;-89
2022/05/18 02:33:39;;;;;;;3.50;2.00;;;17.90;18.80;;;;;;4770787;30;20130;-89
2022/05/18 02:36:08;;;;;;;3.83;2.35;;;17.90;20.30;;;;;;4770460;30;20402;-89
2022/05/18 02:38:35;;;;;;;7.57;3.25;;;17.80;21.20;;;;;;4771054;30;20415;-88
2022/05/18 02:41:02;;;;;;;6.28;3.35;;;17.80;20.80;;;;;;4771178;30;20109;-88
2022/05/18 02:43:31;;;;;;;6.63;2.92;;;17.80;21.40;;;;;;4770906;30;20048;-88
2022/05/18 02:46:03;;;;;;;3.72;2.10;;;17.70;30.30;;;;;;4770963;30;20075;-88
2022/05/18 02:48:30;;;;;;;5.28;2.53;;;17.60;27.70;;;;;;4770882;30;20442;-88
2022/05/18 02:50:57;;;;;;;3.75;2.63;;;17.70;27.10;;;;;;4770725;30;20058;-88
2022/05/18 02:53:24;;;;;;;5.05;2.47;;;17.70;24.70;;;;;;4770322;30;20462;-88
2022/05/18 02:56:06;;;;;;;15.07;6.72;;;17.70;26.40;;;;;;4771903;30;20047;-88
2022/05/18 02:58:37;;;;;;;3.63;2.42;;;17.70;36.60;;;;;;4757903;30;20051;-88
2022/05/18 03:01:07;;;;;;;7.03;4.70;;;17.70;28.00;;;;;;4770684;30;20066;-88
2022/05/18 03:03:35;;;;;;;10.77;6.13;;;17.60;34.70;;;;;;4770568;30;20055;-88
2022/05/18 03:06:03;;;;;;;3.95;3.03;;;17.50;43.00;;;;;;4770373;30;20499;-88
2022/05/18 03:08:32;;;;;;;4.47;2.67;;;17.60;35.20;;;;;;4770484;30;20060;-88
2022/05/18 03:10:59;;;;;;;3.60;2.45;;;17.60;30.80;;;;;;4770705;30;20048;-88
2022/05/18 03:13:26;;;;;;;7.70;4.85;;;17.60;28.40;;;;;;4770385;30;20079;-88
2022/05/18 03:15:53;;;;;;;5.40;2.42;;;17.60;29.40;;;;;;4779912;29;20146;-88
2022/05/18 03:18:20;;;;;;;4.57;3.63;;;17.60;32.00;;;;;;4788389;30;20058;-88
2022/05/18 03:23:35;;;;;;;4.10;2.33;;;17.60;28.30;;;;;;4788123;30;20490;-88
2022/05/18 03:26:14;;;;;;;4.38;2.47;;;17.60;29.80;;;;;;4773751;30;20091;-88
2022/05/18 03:28:44;;;;;;;2.67;2.17;;;17.60;32.40;;;;;;4789213;29;20134;-88
2022/05/18 03:31:12;;;;;;;7.40;3.80;;;17.60;30.50;;;;;;4789189;29;20388;-88
2022/05/18 03:33:39;;;;;;;11.27;4.15;;;17.50;33.60;;;;;;4787984;30;20515;-90
2022/05/18 03:36:08;;;;;;;4.25;2.40;;;17.50;34.10;;;;;;4788040;29;20055;-90
2022/05/18 03:38:36;;;;;;;4.15;2.55;;;17.50;32.20;;;;;;4787533;30;20051;-90
2022/05/18 03:41:03;;;;;;;5.50;3.50;;;17.50;30.80;;;;;;4787052;29;20048;-88
2022/05/18 03:43:31;;;;;;;9.30;5.30;;;17.50;29.90;;;;;;4784511;30;20052;-90
2022/05/18 03:46:01;;;;;;;4.60;3.20;;;17.50;30.70;;;;;;4788583;29;20410;-90
2022/05/18 03:48:28;;;;;;;4.30;2.38;;;17.50;33.30;;;;;;4772363;30;20051;-88
2022/05/18 03:50:57;;;;;;;3.80;2.47;;;17.50;28.60;;;;;;4789943;29;20120;-91
2022/05/18 03:53:25;;;;;;;3.75;2.75;;;17.50;28.30;;;;;;4789827;29;20087;-90
2022/05/18 03:55:53;;;;;;;5.07;2.25;;;17.50;31.40;;;;;;4774854;30;20079;-87
2022/05/18 03:58:20;;;;;;;4.20;2.30;;;17.50;28.50;;;;;;4803033;29;20047;-91
2022/05/18 04:00:49;;;;;;;5.30;2.53;;;17.50;28.30;;;;;;4787535;30;20050;-88
2022/05/18 04:03:18;;;;;;;4.72;2.95;;;17.50;28.30;;;;;;4788972;29;20051;-90
2022/05/18 04:05:49;;;;;;;4.05;2.45;;;17.50;28.50;;;;;;4788162;29;20487;-90
2022/05/18 04:08:17;;;;;;;5.22;3.63;;;17.50;30.90;;;;;;4773195;30;20079;-88
2022/05/18 04:10:44;;;;;;;15.32;8.57;;;17.50;32.40;;;;;;4770483;30;20138;-93
2022/05/18 04:13:19;;;;;;;7.75;4.72;;;17.40;47.70;;;;;;4770179;30;20040;-93
2022/05/18 04:15:48;;;;;;;11.93;6.30;;;17.40;34.80;;;;;;4770380;30;20062;-93
2022/05/18 04:18:15;;;;;;;11.13;6.45;;;17.40;93.00;;;;;;4770375;30;20053;-91
2022/05/18 04:20:43;;;;;;;4.65;2.97;;;17.30;83.80;;;;;;4778579;30;20590;-92
2022/05/18 04:23:14;;;;;;;8.15;5.55;;;17.30;72.70;;;;;;4787457;30;20075;-92
2022/05/18 04:26:16;;;;;;;18.40;10.18;;;17.30;77.80;;;;;;5109375;24;20049;-92
2022/05/18 04:51:16;;;;;;;12.27;8.18;;;17.30;97.70;;;;;;4918481;23;20531;-91
2022/05/18 04:53:43;;;;;;;13.63;6.60;;;17.40;99.90;;;;;;4824478;29;20062;-89
2022/05/18 04:56:10;;;;;;;8.35;3.80;;;17.30;99.90;;;;;;4824199;29;20126;-90
2022/05/18 04:58:39;;;;;;;14.15;7.85;;;17.30;99.90;;;;;;4824508;29;20050;-89
2022/05/18 05:01:09;;;;;;;7.50;4.25;;;17.30;99.10;;;;;;4824103;29;20054;-89
2022/05/18 05:03:37;;;;;;;5.65;3.65;;;17.30;98.10;;;;;;4824241;29;20055;-88
2022/05/18 05:06:08;;;;;;;17.40;7.43;;;17.40;98.30;;;;;;4824828;29;20069;-89
2022/05/18 05:08:37;;;;;;;6.72;4.70;;;17.40;99.10;;;;;;4828238;29;20079;-89
2022/05/18 05:11:06;;;;;;;4.65;2.92;;;17.40;98.50;;;;;;4833283;29;20086;-89
2022/05/18 05:13:34;;;;;;;6.18;4.47;;;17.40;97.70;;;;;;4829445;29;20050;-90
2022/05/18 05:16:04;;;;;;;9.98;5.35;;;17.40;95.20;;;;;;4823799;29;20080;-89
2022/05/18 05:18:31;;;;;;;10.48;5.95;;;17.40;97.20;;;;;;4823538;29;20079;-89
2022/05/18 05:20:58;;;;;;;5.85;4.25;;;17.40;97.50;;;;;;4823401;29;20054;-89
2022/05/18 05:23:27;;;;;;;9.90;5.75;;;17.40;95.90;;;;;;4823576;29;20042;-90
2022/05/18 05:25:56;;;;;;;6.10;3.10;;;17.40;97.10;;;;;;4823308;29;20058;-89
2022/05/18 05:28:23;;;;;;;4.70;2.58;;;17.40;95.40;;;;;;4823390;29;20058;-90
2022/05/18 05:30:50;;;;;;;3.63;2.53;;;17.40;94.60;;;;;;4823202;29;20050;-89
2022/05/18 05:33:17;;;;;;;7.10;3.50;;;17.40;93.20;;;;;;4823080;29;20038;-90
2022/05/18 05:35:44;;;;;;;7.20;4.72;;;17.40;94.80;;;;;;4822893;29;20169;-89
2022/05/18 05:38:12;;;;;;;5.43;3.25;;;17.40;96.20;;;;;;4808134;29;20054;-92
2022/05/18 05:40:39;;;;;;;14.18;8.32;;;17.40;95.00;;;;;;4823118;29;20486;-92
2022/05/18 05:43:10;;;;;;;13.00;8.45;;;17.40;95.30;;;;;;4822893;29;20056;-92
2022/05/18 05:45:38;;;;;;;13.02;8.52;;;17.40;99.90;;;;;;4807667;29;20145;-92
2022/05/18 05:48:07;;;;;;;17.77;8.52;;;17.30;99.90;;;;;;4822739;29;20129;-91
2022/05/18 05:50:34;;;;;;;16.42;9.15;;;17.30;99.90;;;;;;4822368;29;20554;-92
2022/05/18 05:53:02;;;;;;;14.10;8.07;;;17.40;99.90;;;;;;4823647;29;20209;-91
2022/05/18 05:55:29;;;;;;;10.00;6.97;;;17.30;99.90;;;;;;4822060;29;20085;-91
2022/05/18 05:57:56;;;;;;;16.77;9.27;;;17.40;99.90;;;;;;4822718;29;20051;-91
2022/05/18 06:00:24;;;;;;;15.70;8.15;;;17.40;99.80;;;;;;4822703;29;20065;-90
2022/05/18 06:02:51;;;;;;;12.30;7.40;;;17.40;97.60;;;;;;4822638;29;20051;-91
2022/05/18 06:05:19;;;;;;;15.25;7.85;;;17.40;98.00;;;;;;4822626;29;20064;-91
2022/05/18 06:07:47;;;;;;;17.38;9.23;;;17.40;95.50;;;;;;4822860;29;20557;-91
2022/05/18 06:10:14;;;;;;;15.60;9.55;;;17.50;96.10;;;;;;4822449;29;20079;-92
2022/05/18 06:12:41;;;;;;;19.83;10.57;;;17.50;96.30;;;;;;4825277;29;20093;-92
2022/05/18 06:15:10;;;;;;;16.98;9.23;;;17.60;97.00;;;;;;4825535;29;20046;-91
2022/05/18 06:17:38;;;;;;;22.80;12.73;;;17.60;95.50;;;;;;4795921;29;20397;-92
2022/05/18 06:20:06;;;;;;;17.48;9.43;;;17.60;97.50;;;;;;4810577;29;20504;-90
2022/05/18 06:22:33;;;;;;;20.48;11.48;;;17.60;93.30;;;;;;4826103;29;20137;-92
2022/05/18 06:25:00;;;;;;;15.88;10.40;;;17.70;97.00;;;;;;4825174;29;20458;-91
2022/05/18 06:27:28;;;;;;;15.43;10.82;;;17.70;97.20;;;;;;4825887;29;20167;-91
2022/05/18 06:29:54;;;;;;;19.05;11.73;;;17.70;94.10;;;;;;4825540;29;20062;-92
2022/05/18 06:32:21;;;;;;;21.70;12.40;;;17.70;97.30;;;;;;4825791;29;20082;-90
2022/05/18 06:34:48;;;;;;;21.35;12.35;;;17.80;94.60;;;;;;4810687;29;20476;-90
2022/05/18 06:37:15;;;;;;;17.58;10.40;;;17.70;94.20;;;;;;4825704;29;20103;-89
2022/05/18 06:39:43;;;;;;;21.88;11.30;;;17.70;94.90;;;;;;4826056;29;20066;-90
2022/05/18 06:42:09;;;;;;;21.35;10.90;;;17.70;95.90;;;;;;4825327;29;20057;-88
2022/05/18 06:44:42;;;;;;;19.85;10.52;;;17.70;94.20;;;;;;4824924;29;20421;-90
2022/05/18 06:47:09;;;;;;;16.30;9.82;;;17.80;95.30;;;;;;4825327;29;20153;-90
2022/05/18 06:49:36;;;;;;;17.77;8.13;;;17.80;93.00;;;;;;4825314;29;20087;-89
2022/05/18 06:52:03;;;;;;;20.30;11.30;;;17.80;91.90;;;;;;4827278;29;20149;-90
2022/05/18 06:54:30;;;;;;;22.48;11.15;;;17.80;92.60;;;;;;4827136;29;20124;-91
2022/05/18 06:57:18;;;;;;;19.48;11.52;;;17.80;93.20;;;;;;4826888;29;20057;-90
2022/05/18 06:59:45;;;;;;;14.80;9.95;;;17.80;91.10;;;;;;4825359;29;20050;-91
2022/05/18 07:02:13;;;;;;;16.45;9.18;;;17.80;90.00;;;;;;4810815;29;20709;-91
2022/05/18 07:04:40;;;;;;;21.60;11.63;;;17.80;90.50;;;;;;4825806;29;20502;-91
2022/05/18 07:07:16;;;;;;;17.15;9.38;;;17.80;90.30;;;;;;4825522;29;20050;-91
2022/05/18 07:09:43;;;;;;;20.58;9.63;;;17.80;90.00;;;;;;4825021;29;20144;-90
2022/05/18 07:12:11;;;;;;;18.88;9.40;;;17.80;87.20;;;;;;4824787;29;20051;-90
2022/05/18 07:14:38;;;;;;;20.48;11.70;;;17.80;91.40;;;;;;4824764;29;20485;-91
2022/05/18 07:17:05;;;;;;;16.25;9.95;;;17.80;90.20;;;;;;4824833;29;20097;-90
2022/05/18 07:19:33;;;;;;;19.42;10.98;;;17.70;90.30;;;;;;4824592;29;20051;-90
2022/05/18 07:21:59;;;;;;;14.95;9.10;;;17.80;84.70;;;;;;4809697;29;20520;-91
2022/05/18 07:24:26;;;;;;;19.83;11.23;;;17.80;85.80;;;;;;4824333;29;20386;-90
2022/05/18 07:26:53;;;;;;;20.42;11.52;;;17.80;84.40;;;;;;4824456;29;20511;-89
2022/05/18 07:29:20;;;;;;;22.13;10.32;;;17.80;84.30;;;;;;4809671;29;20055;-90
2022/05/18 07:34:34;;;;;;;12.75;6.32;;;17.80;78.90;;;;;;4811464;29;20478;-90
2022/05/18 07:37:02;;;;;;;8.95;4.90;;;17.80;78.80;;;;;;4824585;29;20054;-90
2022/05/18 07:39:30;;;;;;;7.55;4.43;;;17.90;76.00;;;;;;4824443;29;20046;-90
2022/05/18 07:42:01;;;;;;;9.07;4.85;;;17.90;74.60;;;;;;4824773;29;20043;-90
2022/05/18 07:44:28;;;;;;;6.43;4.45;;;17.90;73.60;;;;;;4823808;29;20496;-90
2022/05/18 07:46:55;;;;;;;23.08;9.82;;;17.90;70.30;;;;;;4824072;29;20157;-90
2022/05/18 07:49:22;;;;;;;10.15;5.38;;;17.90;72.40;;;;;;4824196;29;20156;-90
2022/05/18 07:51:49;;;;;;;10.00;6.70;;;17.90;73.30;;;;;;4824192;29;20058;-90
2022/05/18 07:54:17;;;;;;;15.40;6.65;;;17.90;71.20;;;;;;4824309;29;20042;-89
2022/05/18 07:56:44;;;;;;;11.90;7.18;;;17.90;71.90;;;;;;4824734;29;20066;-90
2022/05/18 07:59:12;;;;;;;13.02;7.63;;;17.90;71.50;;;;;;4824409;29;20057;-90
2022/05/18 08:01:39;;;;;;;14.93;7.07;;;17.90;70.90;;;;;;4824467;29;20137;-90
2022/05/18 08:04:06;;;;;;;11.60;6.47;;;17.90;75.80;;;;;;4824139;29;20107;-90
2022/05/18 08:06:34;;;;;;;22.33;7.70;;;17.90;67.70;;;;;;4824179;29;20043;-90
2022/05/18 08:09:02;;;;;;;13.68;6.75;;;18.00;67.10;;;;;;4824171;29;20083;-89
2022/05/18 08:17:00;;;;;;;12.43;6.90;;;18.10;70.00;;;;;;4824951;29;20127;-91
2022/05/18 08:19:29;;;;;;;22.40;10.32;;;18.10;67.20;;;;;;4823866;29;20141;-91
2022/05/18 08:21:56;;;;;;;18.33;8.18;;;18.10;67.90;;;;;;4808743;29;20065;-91
2022/05/18 08:24:23;;;;;;;19.77;8.23;;;18.10;68.10;;;;;;4823667;29;20050;-91
2022/05/18 08:26:50;;;;;;;15.77;7.07;;;18.20;68.10;;;;;;4823524;29;20053;-91
2022/05/18 08:29:17;;;;;;;14.70;5.93;;;18.20;65.90;;;;;;4823855;29;20149;-91
2022/05/18 08:31:47;;;;;;;11.25;6.28;;;18.30;63.10;;;;;;4823494;29;20417;-91
2022/05/18 08:34:14;;;;;;;12.07;5.57;;;18.30;64.70;;;;;;4823039;29;20042;-91
2022/05/18 08:36:42;;;;;;;13.13;6.47;;;18.40;80.00;;;;;;4824004;29;20051;-90
2022/05/18 08:39:09;;;;;;;11.93;6.43;;;18.40;64.60;;;;;;4823699;29;20125;-90
2022/05/18 08:41:45;;;;;;;11.77;6.55;;;18.50;64.80;;;;;;4823462;29;20078;-91
2022/05/18 08:44:34;;;;;;;8.23;5.50;;;18.50;63.70;;;;;;4823063;29;20055;-91
2022/05/18 08:47:19;;;;;;;11.07;4.95;;;18.50;61.00;;;;;;4822865;29;20050;-91
2022/05/18 08:50:01;;;;;;;9.18;6.15;;;18.60;57.00;;;;;;4823201;29;20485;-90
2022/05/18 08:52:50;;;;;;;17.63;7.17;;;18.60;58.00;;;;;;4823744;29;20111;-91
2022/05/18 08:55:45;;;;;;;12.85;5.07;;;18.50;62.60;;;;;;4823058;29;20046;-90
2022/05/18 08:58:28;;;;;;;18.63;8.75;;;18.60;60.40;;;;;;4823521;29;20472;-91
2022/05/18 09:01:11;;;;;;;15.15;8.40;;;18.60;61.90;;;;;;4823362;29;20119;-91
2022/05/18 09:03:45;;;;;;;19.20;8.85;;;18.50;61.90;;;;;;4823267;29;20058;-92
2022/05/18 09:06:34;;;;;;;7.85;4.50;;;18.60;66.40;;;;;;4824161;29;20494;-91
2022/05/18 09:11:50;;;;;;;9.05;4.78;;;18.70;59.10;;;;;;4824810;29;20047;-92
2022/05/18 09:14:20;;;;;;;7.63;4.65;;;18.70;58.00;;;;;;4823103;29;20073;-91
2022/05/18 09:17:03;;;;;;;7.63;4.03;;;18.70;56.20;;;;;;4824326;29;20074;-92
2022/05/18 09:20:13;;;;;;;10.87;4.80;;;18.70;55.60;;;;;;4823752;29;20045;-91
2022/05/18 09:22:58;;;;;;;8.68;4.47;;;18.70;53.60;;;;;;4768489;30;20056;-92
2022/05/18 09:25:44;;;;;;;13.18;5.85;;;18.70;56.90;;;;;;4823946;29;20054;-91
2022/05/18 09:28:17;;;;;;;8.48;4.80;;;18.70;56.10;;;;;;4808252;29;20103;-92
2022/05/18 09:31:03;;;;;;;;;;;18.70;53.60;;;;;;4824088;29;20073;-91
2022/05/18 09:33:48;;;;;;;11.90;5.65;;;18.70;53.50;;;;;;4823419;29;20371;-91
2022/05/18 09:36:44;;;;;;;14.50;6.95;;;18.60;50.60;;;;;;4824405;29;20494;-91
2022/05/18 09:39:17;;;;;;;7.63;3.97;;;18.70;52.10;;;;;;4823320;29;20076;-92
2022/05/18 09:41:50;;;;;;;5.65;3.92;;;18.70;51.20;;;;;;4823492;29;20088;-92
2022/05/18 09:44:23;;;;;;;6.05;4.18;;;18.70;51.00;;;;;;4824217;29;20085;-92
2022/05/18 09:46:51;;;;;;;17.55;6.78;;;18.70;49.80;;;;;;4825238;29;20059;-91
2022/05/18 09:49:24;;;;;;;9.40;5.82;;;18.70;51.90;;;;;;4826412;29;20050;-91
2022/05/18 09:51:54;;;;;;;8.43;4.13;;;18.70;51.50;;;;;;4827364;29;20046;-91
2022/05/18 09:54:23;;;;;;;12.77;6.60;;;18.80;49.10;;;;;;4826603;29;20581;-92
2022/05/18 09:56:58;;;;;;;6.45;4.22;;;18.90;47.40;;;;;;4825996;29;20197;-91
2022/05/18 09:59:35;;;;;;;11.05;5.20;;;18.90;46.70;;;;;;4826329;29;20141;-91
2022/05/18 10:07:27;;;;;;;10.20;4.20;;;18.90;43.10;;;;;;4812865;29;20050;-92
2022/05/18 10:08:13;;;;;;;8.93;3.40;;;19.00;38.30;;;;;;4804940;29;20081;-90
2022/05/18 10:10:40;;;;;;;7.88;4.57;;;19.00;37.90;;;;;;4825940;29;20089;-90
2022/05/18 10:13:19;;;;;;;3.90;2.78;;;19.10;32.60;;;;;;4825600;29;20046;-92
2022/05/18 10:16:16;;;;;;;10.30;3.92;;;19.10;29.50;;;;;;4827017;29;20047;-90
2022/05/18 10:18:57;;;;;;;9.23;4.75;;;19.20;24.00;;;;;;4827068;29;20057;-92
2022/05/18 10:21:35;;;;;;;9.15;3.83;;;19.20;21.00;;;;;;4825991;29;20043;-92
2022/05/18 10:24:22;;;;;;;9.45;4.25;;;19.10;19.70;;;;;;4825178;29;20050;-92
2022/05/18 10:27:07;;;;;;;7.50;3.50;;;19.20;16.60;;;;;;4825547;29;20101;-90
2022/05/18 10:29:34;;;;;;;9.02;4.20;;;19.40;9.50;;;;;;4826220;29;20058;-90
2022/05/18 10:32:04;;;;;;;6.22;3.80;;;19.40;4.50;;;;;;4825169;29;20507;-90
2022/05/18 10:34:46;;;;;;;10.98;5.28;;;19.30;1.00;;;;;;4824537;29;20095;-90
2022/05/18 10:37:26;;;;;;;5.05;3.10;;;19.50;1.00;;;;;;4825865;29;20095;-87
2022/05/18 10:40:10;;;;;;;6.70;2.72;;;19.60;1.00;;;;;;4825114;29;20085;-88
2022/05/18 10:42:51;;;;;;;4.45;2.80;;;19.70;1.00;;;;;;4826152;29;20054;-89
2022/05/18 10:45:25;;;;;;;5.43;2.22;;;19.80;1.00;;;;;;4826839;29;20455;-91
2022/05/18 10:47:56;;;;;;;3.00;2.40;;;19.80;1.00;;;;;;4825475;29;20089;-91
2022/05/18 10:50:34;;;;;;;6.28;2.65;;;19.90;1.00;;;;;;4825298;29;20058;-91
2022/05/18 10:53:25;;;;;;;6.47;2.72;;;19.90;1.00;;;;;;4826459;29;20051;-91
2022/05/18 10:56:09;;;;;;;4.68;2.28;;;19.90;1.00;;;;;;4811488;29;20066;-91
2022/05/18 10:59:04;;;;;;;11.15;4.30;;;20.10;1.00;;;;;;4824795;29;20046;-91
2022/05/18 11:01:44;;;;;;;3.95;2.15;;;20.00;1.00;;;;;;4825343;29;20058;-90
2022/05/18 11:04:26;;;;;;;8.45;2.60;;;20.00;1.00;;;;;;4795381;29;20535;-90
2022/05/18 11:06:54;;;;;;;7.15;2.60;;;20.00;1.00;;;;;;4825261;29;20046;-90
2022/05/18 11:09:29;;;;;;;3.88;1.73;;;19.90;1.00;;;;;;4824790;29;20088;-90
2022/05/18 11:12:14;;;;;;;2.38;1.52;;;20.30;1.00;;;;;;4825465;29;20050;-90
2022/05/18 11:15:05;;;;;;;5.78;1.98;;;20.30;1.00;;;;;;4824769;29;20073;-90
2022/05/18 11:18:04;;;;;;;5.68;2.47;;;20.40;1.00;;;;;;4824824;29;20137;-90
2022/05/18 11:20:46;;;;;;;6.60;2.67;;;20.50;1.00;;;;;;4824601;29;20493;-91
2022/05/18 11:23:39;;;;;;;5.45;2.13;;;20.60;1.00;;;;;;4824709;29;20058;-90
2022/05/18 11:26:29;;;;;;;3.85;1.80;;;20.80;1.00;;;;;;4784704;29;20054;-91
2022/05/18 11:29:25;;;;;;;3.70;2.13;;;20.80;1.00;;;;;;4821879;29;20062;-91
2022/05/18 11:32:15;;;;;;;7.82;2.58;;;20.90;1.00;;;;;;4824722;29;20062;-90
2022/05/18 11:35:00;;;;;;;2.78;1.50;;;20.60;1.00;;;;;;4825148;29;20569;-90
2022/05/18 11:37:59;;;;;;;6.82;1.75;;;20.90;1.00;;;;;;4825302;29;20046;-91
2022/05/18 11:40:46;;;;;;;3.13;1.55;;;21.20;1.00;;;;;;4824777;29;20046;-91
2022/05/18 11:43:28;;;;;;;4.97;1.98;;;21.60;1.00;;;;;;4823880;29;20058;-90
2022/05/18 11:46:04;;;;;;;;;;;21.70;1.00;;;;;;4826628;29;20134;-90
2022/05/18 11:48:58;;;;;;;4.63;1.23;;;21.30;1.00;;;;;;4824430;29;19954;-91
2022/05/18 11:51:40;;;;;;;5.38;1.27;;;21.30;1.00;;;;;;4809421;29;20088;-90
2022/05/18 11:54:10;;;;;;;4.22;2.15;;;21.50;1.00;;;;;;4824888;29;20489;-91
2022/05/18 11:56:55;;;;;;;4.95;2.00;;;21.40;1.00;;;;;;4824259;29;20152;-91
2022/05/18 11:59:45;;;;;;;5.45;2.28;;;21.70;1.00;;;;;;4824257;29;20047;-91
2022/05/18 12:02:15;;;;;;;2.13;1.15;;;21.60;1.00;;;;;;4825138;29;20149;-91
2022/05/18 12:05:05;;;;;;;3.72;1.38;;;22.00;1.00;;;;;;4826094;29;20042;-90
2022/05/18 12:07:58;;;;;;;5.28;1.40;;;22.20;1.00;;;;;;4817515;29;20115;-91
2022/05/18 12:10:49;;;;;;;2.45;0.93;;;22.00;1.00;;;;;;4824937;29;20059;-90
2022/05/18 12:13:25;;;;;;;3.45;1.40;;;21.90;1.00;;;;;;4811325;29;20047;-90
2022/05/18 12:16:07;;;;;;;3.03;0.75;;;22.10;1.00;;;;;;4824643;29;20569;-91
2022/05/18 12:18:49;;;;;;;8.40;1.80;;;22.40;1.00;;;;;;4809571;29;20073;-90
2022/05/18 12:21:36;;;;;;;2.05;1.00;;;22.40;1.00;;;;;;4824739;29;20814;-90
2022/05/18 12:24:05;;;;;;;3.58;1.10;;;22.20;1.00;;;;;;4826149;29;20134;-92
2022/05/18 12:26:37;;;;;;;2.85;1.05;;;22.30;1.00;;;;;;4824704;29;20046;-90
2022/05/18 12:29:06;;;;;;;4.82;1.67;;;22.70;1.00;;;;;;4809924;29;20088;-90
2022/05/18 12:31:34;;;;;;;3.42;1.08;;;22.40;1.00;;;;;;4825680;29;20049;-89
2022/05/18 12:34:21;;;;;;;2.15;1.30;;;22.50;1.00;;;;;;4824502;29;20054;-89
2022/05/18 12:36:54;;;;;;;3.97;1.13;;;22.60;1.00;;;;;;4826011;29;20054;-89
2022/05/18 12:39:39;;;;;;;6.72;1.30;;;22.80;1.00;;;;;;4826167;29;20107;-90
2022/05/18 12:42:10;;;;;;;4.63;1.25;;;23.00;1.00;;;;;;4826256;29;20050;-90
2022/05/18 12:44:49;;;;;;;3.17;1.50;;;22.40;1.00;;;;;;4825061;29;20062;-90
2022/05/18 12:47:22;;;;;;;1.20;0.75;;;22.50;1.00;;;;;;4825946;29;20054;-90
2022/05/18 12:50:01;;;;;;;3.05;1.70;;;22.80;1.00;;;;;;4825264;29;20459;-91
2022/05/18 12:52:59;;;;;;;2.25;0.90;;;22.70;1.00;;;;;;4824391;29;20083;-91
2022/05/18 12:55:42;;;;;;;2.42;1.05;;;23.00;1.00;;;;;;4824528;29;20051;-90
2022/05/18 12:58:09;;;;;;;2.75;0.98;;;23.20;1.00;;;;;;4826286;29;20050;-91
2022/05/18 13:00:46;;;;;;;4.07;0.93;;;23.30;1.00;;;;;;4810123;29;20497;-90
2022/05/18 13:03:16;;;;;;;1.15;0.60;;;23.50;1.00;;;;;;4828369;29;20050;-91
2022/05/18 13:05:52;;;;;;;1.88;1.05;;;23.20;1.00;;;;;;4824698;29;20404;-90
2022/05/18 13:08:20;;;;;;;2.75;0.82;;;23.10;1.00;;;;;;4826029;29;20061;-91
2022/05/18 13:11:13;;;;;;;2.55;0.93;;;23.00;1.00;;;;;;4823978;29;20054;-92
2022/05/18 13:14:00;;;;;;;;;;;23.00;1.00;;;;;;4823357;29;20046;-91
2022/05/18 13:16:38;;;;;;;2.70;1.10;;;22.80;1.00;;;;;;4824167;29;19928;-91
2022/05/18 13:19:12;;;;;;;1.25;0.60;;;23.60;1.00;;;;;;4822704;29;20103;-91
2022/05/18 13:21:51;;;;;;;2.65;0.80;;;23.80;1.00;;;;;;4826219;29;20105;-91
2022/05/18 13:24:20;;;;;;;2.10;1.08;;;23.90;1.00;;;;;;4825953;29;20057;-91
2022/05/18 13:26:50;;;;;;;2.00;0.68;;;23.90;1.00;;;;;;4826638;29;20524;-89
2022/05/18 13:29:25;;;;;;;2.67;0.85;;;23.80;1.00;;;;;;4826309;29;20061;-89
2022/05/18 13:31:57;;;;;;;0.90;0.40;;;23.90;1.00;;;;;;4826614;29;20058;-90
2022/05/18 13:34:30;;;;;;;2.95;0.82;;;23.90;1.00;;;;;;4827489;29;20086;-90
2022/05/18 13:36:59;;;;;;;1.77;0.93;;;24.20;1.00;;;;;;4826898;29;20139;-91
2022/05/18 13:39:30;;;;;;;1.90;0.80;;;24.40;1.00;;;;;;4826647;29;20096;-90
2022/05/18 13:41:57;;;;;;;2.83;0.77;;;24.60;1.00;;;;;;4827792;29;20063;-89
2022/05/18 13:44:26;;;;;;;4.07;1.00;;;24.60;1.00;;;;;;4827346;29;20519;-90
2022/05/18 13:46:56;;;;;;;1.63;0.80;;;24.60;1.00;;;;;;4828101;29;20078;-90
2022/05/18 13:49:27;;;;;;;2.65;1.15;;;24.60;1.00;;;;;;4827174;29;20050;-91
2022/05/18 13:52:27;;;;;;;1.73;0.70;;;24.80;1.00;;;;;;4827588;29;20047;-89
2022/05/18 13:55:04;;;;;;;2.13;0.80;;;25.00;1.00;;;;;;4827818;29;20131;-90
2022/05/18 13:57:46;;;;;;;1.58;0.60;;;24.90;1.00;;;;;;4827777;29;20046;-91